sensor_id;sensor_type;location;lat;lon;timestamp;P1;durP1;ratioP1;P2;durP2;ratioP2
74344;SDS011;62776;50.518;6.732;2023-04-25T00:02:41;9.73;;;8.85;;
74344;SDS011;62776;50.518;6.732;2023-04-25T00:05:29;8.88;;;7.82;;
74344;SDS011;62776;50.518;6.732;2023-04-25T00:08:16;9.85;;;8.80;;
74344;SDS011;62776;50.518;6.732;2023-04-25T00:11:04;9.15;;;7.68;;
74344;SDS011;62776;50.518;6.732;2023-04-25T00:13:58;9.02;;;8.23;;
74344;SDS011;62776;50.518;6.732;2023-04-25T00:16:57;9.55;;;8.35;;
74344;SDS011;62776;50.518;6.732;2023-04-25T00:19:45;14.38;;;8.98;;
74344;SDS011;62776;50.518;6.732;2023-04-25T00:22:32;9.32;;;8.35;;
74344;SDS011;62776;50.518;6.732;2023-04-25T00:25:26;9.68;;;8.77;;
74344;SDS011;62776;50.518;6.732;2023-04-25T00:28:22;12.77;;;8.35;;
74344;SDS011;62776;50.518;6.732;2023-04-25T00:31:15;8.95;;;8.05;;
74344;SDS011;62776;50.518;6.732;2023-04-25T00:34:02;8.93;;;8.10;;
74344;SDS011;62776;50.518;6.732;2023-04-25T00:36:50;10.98;;;9.52;;
74344;SDS011;62776;50.518;6.732;2023-04-25T00:39:47;9.00;;;8.18;;
74344;SDS011;62776;50.518;6.732;2023-04-25T00:42:33;9.30;;;8.52;;
74344;SDS011;62776;50.518;6.732;2023-04-25T00:45:23;11.32;;;9.02;;
74344;SDS011;62776;50.518;6.732;2023-04-25T00:48:20;9.60;;;8.70;;
74344;SDS011;62776;50.518;6.732;2023-04-25T00:51:21;9.13;;;8.23;;
74344;SDS011;62776;50.518;6.732;2023-04-25T00:54:09;10.23;;;9.13;;
74344;SDS011;62776;50.518;6.732;2023-04-25T00:56:59;12.20;;;10.15;;
74344;SDS011;62776;50.518;6.732;2023-04-25T00:59:53;11.23;;;8.68;;
74344;SDS011;62776;50.518;6.732;2023-04-25T01:02:50;10.30;;;9.07;;
74344;SDS011;62776;50.518;6.732;2023-04-25T01:05:57;11.02;;;9.93;;
74344;SDS011;62776;50.518;6.732;2023-04-25T01:08:43;12.07;;;9.35;;
74344;SDS011;62776;50.518;6.732;2023-04-25T01:11:31;9.70;;;8.68;;
74344;SDS011;62776;50.518;6.732;2023-04-25T01:14:19;9.05;;;8.23;;
74344;SDS011;62776;50.518;6.732;2023-04-25T01:17:11;10.15;;;9.10;;
74344;SDS011;62776;50.518;6.732;2023-04-25T01:22:54;9.90;;;8.75;;
74344;SDS011;62776;50.518;6.732;2023-04-25T01:25:41;10.98;;;8.52;;
74344;SDS011;62776;50.518;6.732;2023-04-25T01:28:28;9.43;;;8.50;;
74344;SDS011;62776;50.518;6.732;2023-04-25T01:31:15;9.50;;;8.60;;
74344;SDS011;62776;50.518;6.732;2023-04-25T01:34:03;10.57;;;8.88;;
74344;SDS011;62776;50.518;6.732;2023-04-25T01:36:49;10.65;;;9.55;;
74344;SDS011;62776;50.518;6.732;2023-04-25T01:39:43;10.77;;;9.35;;
74344;SDS011;62776;50.518;6.732;2023-04-25T01:42:32;10.02;;;9.00;;
74344;SDS011;62776;50.518;6.732;2023-04-25T01:45:19;9.80;;;8.55;;
74344;SDS011;62776;50.518;6.732;2023-04-25T01:48:05;9.25;;;8.35;;
74344;SDS011;62776;50.518;6.732;2023-04-25T01:50:55;10.07;;;8.10;;
74344;SDS011;62776;50.518;6.732;2023-04-25T01:53:44;13.63;;;9.88;;
74344;SDS011;62776;50.518;6.732;2023-04-25T01:56:32;9.93;;;8.93;;
74344;SDS011;62776;50.518;6.732;2023-04-25T01:59:22;9.93;;;8.05;;
74344;SDS011;62776;50.518;6.732;2023-04-25T02:02:08;10.68;;;7.55;;
74344;SDS011;62776;50.518;6.732;2023-04-25T02:04:56;14.98;;;8.40;;
74344;SDS011;62776;50.518;6.732;2023-04-25T02:07:54;8.15;;;7.43;;
74344;SDS011;62776;50.518;6.732;2023-04-25T02:10:42;8.45;;;7.60;;
74344;SDS011;62776;50.518;6.732;2023-04-25T02:13:28;10.15;;;9.15;;
74344;SDS011;62776;50.518;6.732;2023-04-25T02:16:16;9.75;;;8.48;;
74344;SDS011;62776;50.518;6.732;2023-04-25T02:19:02;11.43;;;8.75;;
74344;SDS011;62776;50.518;6.732;2023-04-25T02:21:55;13.13;;;8.25;;
74344;SDS011;62776;50.518;6.732;2023-04-25T02:24:43;8.93;;;8.13;;
74344;SDS011;62776;50.518;6.732;2023-04-25T02:27:30;11.07;;;7.65;;
74344;SDS011;62776;50.518;6.732;2023-04-25T02:30:17;10.38;;;7.45;;
74344;SDS011;62776;50.518;6.732;2023-04-25T02:33:04;11.93;;;7.97;;
74344;SDS011;62776;50.518;6.732;2023-04-25T02:35:53;10.52;;;7.57;;
74344;SDS011;62776;50.518;6.732;2023-04-25T02:38:49;8.80;;;6.95;;
74344;SDS011;62776;50.518;6.732;2023-04-25T02:41:41;8.75;;;6.85;;
74344;SDS011;62776;50.518;6.732;2023-04-25T02:44:26;7.68;;;6.82;;
74344;SDS011;62776;50.518;6.732;2023-04-25T02:47:13;11.65;;;7.15;;
74344;SDS011;62776;50.518;6.732;2023-04-25T02:50:08;8.35;;;7.28;;
74344;SDS011;62776;50.518;6.732;2023-04-25T02:52:54;12.82;;;7.40;;
74344;SDS011;62776;50.518;6.732;2023-04-25T02:55:44;9.57;;;5.97;;
74344;SDS011;62776;50.518;6.732;2023-04-25T02:58:33;8.68;;;6.00;;
74344;SDS011;62776;50.518;6.732;2023-04-25T03:01:21;8.32;;;6.20;;
74344;SDS011;62776;50.518;6.732;2023-04-25T03:04:07;9.43;;;6.25;;
74344;SDS011;62776;50.518;6.732;2023-04-25T03:06:54;11.45;;;6.35;;
74344;SDS011;62776;50.518;6.732;2023-04-25T03:09:41;8.63;;;6.40;;
74344;SDS011;62776;50.518;6.732;2023-04-25T03:12:34;11.75;;;6.57;;
74344;SDS011;62776;50.518;6.732;2023-04-25T03:15:20;8.45;;;6.32;;
74344;SDS011;62776;50.518;6.732;2023-04-25T03:18:08;8.93;;;5.68;;
74344;SDS011;62776;50.518;6.732;2023-04-25T03:20:56;8.98;;;6.20;;
74344;SDS011;62776;50.518;6.732;2023-04-25T03:23:43;11.63;;;7.13;;
74344;SDS011;62776;50.518;6.732;2023-04-25T03:26:30;12.48;;;5.97;;
74344;SDS011;62776;50.518;6.732;2023-04-25T03:29:16;12.93;;;7.10;;
74344;SDS011;62776;50.518;6.732;2023-04-25T03:32:04;10.98;;;6.50;;
74344;SDS011;62776;50.518;6.732;2023-04-25T03:34:50;9.68;;;6.03;;
74344;SDS011;62776;50.518;6.732;2023-04-25T03:37:37;9.88;;;5.80;;
74344;SDS011;62776;50.518;6.732;2023-04-25T03:40:27;11.18;;;6.55;;
74344;SDS011;62776;50.518;6.732;2023-04-25T03:43:13;10.18;;;6.75;;
74344;SDS011;62776;50.518;6.732;2023-04-25T03:46:02;15.45;;;7.38;;
74344;SDS011;62776;50.518;6.732;2023-04-25T03:49:01;13.93;;;7.13;;
74344;SDS011;62776;50.518;6.732;2023-04-25T03:51:47;12.23;;;7.20;;
74344;SDS011;62776;50.518;6.732;2023-04-25T03:54:34;12.10;;;6.93;;
74344;SDS011;62776;50.518;6.732;2023-04-25T03:57:20;10.20;;;6.63;;
74344;SDS011;62776;50.518;6.732;2023-04-25T04:00:08;12.82;;;7.00;;
74344;SDS011;62776;50.518;6.732;2023-04-25T04:02:56;11.75;;;6.97;;
74344;SDS011;62776;50.518;6.732;2023-04-25T04:05:43;10.57;;;6.68;;
74344;SDS011;62776;50.518;6.732;2023-04-25T04:08:30;13.65;;;7.07;;
74344;SDS011;62776;50.518;6.732;2023-04-25T04:11:23;13.93;;;8.52;;
74344;SDS011;62776;50.518;6.732;2023-04-25T04:14:17;8.95;;;6.20;;
74344;SDS011;62776;50.518;6.732;2023-04-25T04:17:03;14.93;;;7.38;;
74344;SDS011;62776;50.518;6.732;2023-04-25T04:19:56;11.50;;;7.35;;
74344;SDS011;62776;50.518;6.732;2023-04-25T04:22:44;12.85;;;8.18;;
74344;SDS011;62776;50.518;6.732;2023-04-25T04:25:31;9.93;;;7.25;;
74344;SDS011;62776;50.518;6.732;2023-04-25T04:28:18;13.73;;;8.43;;
74344;SDS011;62776;50.518;6.732;2023-04-25T04:31:05;14.02;;;7.43;;
74344;SDS011;62776;50.518;6.732;2023-04-25T04:33:52;15.05;;;8.13;;
74344;SDS011;62776;50.518;6.732;2023-04-25T04:36:40;11.45;;;7.35;;
74344;SDS011;62776;50.518;6.732;2023-04-25T04:39:26;10.00;;;7.03;;
74344;SDS011;62776;50.518;6.732;2023-04-25T04:42:12;14.52;;;7.55;;
74344;SDS011;62776;50.518;6.732;2023-04-25T04:44:59;11.65;;;7.57;;
74344;SDS011;62776;50.518;6.732;2023-04-25T04:47:48;10.75;;;6.85;;
74344;SDS011;62776;50.518;6.732;2023-04-25T04:50:35;14.60;;;7.45;;
74344;SDS011;62776;50.518;6.732;2023-04-25T04:53:28;12.98;;;7.72;;
74344;SDS011;62776;50.518;6.732;2023-04-25T04:56:14;9.88;;;7.05;;
74344;SDS011;62776;50.518;6.732;2023-04-25T04:59:00;12.88;;;7.95;;
74344;SDS011;62776;50.518;6.732;2023-04-25T05:01:47;16.08;;;7.90;;
74344;SDS011;62776;50.518;6.732;2023-04-25T05:04:34;13.07;;;7.07;;
74344;SDS011;62776;50.518;6.732;2023-04-25T05:07:20;12.38;;;8.10;;
74344;SDS011;62776;50.518;6.732;2023-04-25T05:10:07;16.17;;;7.72;;
74344;SDS011;62776;50.518;6.732;2023-04-25T05:12:54;10.52;;;6.80;;
74344;SDS011;62776;50.518;6.732;2023-04-25T05:15:42;16.52;;;7.88;;
74344;SDS011;62776;50.518;6.732;2023-04-25T05:18:29;13.40;;;7.55;;
74344;SDS011;62776;50.518;6.732;2023-04-25T05:21:18;12.68;;;6.25;;
74344;SDS011;62776;50.518;6.732;2023-04-25T05:24:05;9.80;;;5.78;;
74344;SDS011;62776;50.518;6.732;2023-04-25T05:26:53;14.48;;;7.43;;
74344;SDS011;62776;50.518;6.732;2023-04-25T05:29:40;11.20;;;6.40;;
74344;SDS011;62776;50.518;6.732;2023-04-25T05:32:26;12.27;;;6.47;;
74344;SDS011;62776;50.518;6.732;2023-04-25T05:35:13;12.00;;;6.53;;
74344;SDS011;62776;50.518;6.732;2023-04-25T05:38:01;10.48;;;6.40;;
74344;SDS011;62776;50.518;6.732;2023-04-25T05:40:48;13.23;;;6.63;;
74344;SDS011;62776;50.518;6.732;2023-04-25T05:43:39;12.27;;;6.38;;
74344;SDS011;62776;50.518;6.732;2023-04-25T05:46:31;11.25;;;5.97;;
74344;SDS011;62776;50.518;6.732;2023-04-25T05:49:17;20.95;;;7.10;;
74344;SDS011;62776;50.518;6.732;2023-04-25T05:52:04;15.18;;;6.20;;
74344;SDS011;62776;50.518;6.732;2023-04-25T05:54:50;11.25;;;6.55;;
74344;SDS011;62776;50.518;6.732;2023-04-25T05:57:36;13.27;;;6.25;;
74344;SDS011;62776;50.518;6.732;2023-04-25T06:00:28;13.40;;;5.78;;
74344;SDS011;62776;50.518;6.732;2023-04-25T06:03:16;20.85;;;7.10;;
74344;SDS011;62776;50.518;6.732;2023-04-25T06:06:02;15.68;;;6.72;;
74344;SDS011;62776;50.518;6.732;2023-04-25T06:08:51;13.63;;;5.40;;
74344;SDS011;62776;50.518;6.732;2023-04-25T06:11:40;18.88;;;6.85;;
74344;SDS011;62776;50.518;6.732;2023-04-25T06:14:27;21.65;;;7.75;;
74344;SDS011;62776;50.518;6.732;2023-04-25T06:17:14;16.45;;;6.55;;
74344;SDS011;62776;50.518;6.732;2023-04-25T06:20:00;11.95;;;5.47;;
74344;SDS011;62776;50.518;6.732;2023-04-25T06:22:49;11.10;;;6.38;;
74344;SDS011;62776;50.518;6.732;2023-04-25T06:25:36;14.07;;;6.95;;
74344;SDS011;62776;50.518;6.732;2023-04-25T06:28:22;13.82;;;6.57;;
74344;SDS011;62776;50.518;6.732;2023-04-25T06:31:10;19.38;;;7.75;;
74344;SDS011;62776;50.518;6.732;2023-04-25T06:33:59;13.70;;;6.85;;
74344;SDS011;62776;50.518;6.732;2023-04-25T06:36:46;21.00;;;8.13;;
74344;SDS011;62776;50.518;6.732;2023-04-25T06:39:33;12.98;;;5.72;;
74344;SDS011;62776;50.518;6.732;2023-04-25T06:42:20;14.57;;;6.75;;
74344;SDS011;62776;50.518;6.732;2023-04-25T06:45:06;13.93;;;6.18;;
74344;SDS011;62776;50.518;6.732;2023-04-25T06:47:53;15.75;;;6.18;;
74344;SDS011;62776;50.518;6.732;2023-04-25T06:50:39;16.05;;;5.75;;
74344;SDS011;62776;50.518;6.732;2023-04-25T06:53:28;13.68;;;5.75;;
74344;SDS011;62776;50.518;6.732;2023-04-25T06:56:14;8.70;;;4.30;;
74344;SDS011;62776;50.518;6.732;2023-04-25T06:59:06;14.20;;;4.70;;
74344;SDS011;62776;50.518;6.732;2023-04-25T07:01:53;10.60;;;4.20;;
74344;SDS011;62776;50.518;6.732;2023-04-25T07:04:41;9.43;;;4.30;;
74344;SDS011;62776;50.518;6.732;2023-04-25T07:07:33;8.20;;;4.00;;
74344;SDS011;62776;50.518;6.732;2023-04-25T07:10:20;13.07;;;5.93;;
74344;SDS011;62776;50.518;6.732;2023-04-25T07:13:08;9.38;;;4.07;;
74344;SDS011;62776;50.518;6.732;2023-04-25T07:15:55;9.10;;;4.38;;
74344;SDS011;62776;50.518;6.732;2023-04-25T07:18:42;9.18;;;3.58;;
74344;SDS011;62776;50.518;6.732;2023-04-25T07:21:30;9.70;;;4.30;;
74344;SDS011;62776;50.518;6.732;2023-04-25T07:24:18;9.35;;;4.65;;
74344;SDS011;62776;50.518;6.732;2023-04-25T07:27:06;8.73;;;3.47;;
74344;SDS011;62776;50.518;6.732;2023-04-25T07:29:53;12.40;;;4.70;;
74344;SDS011;62776;50.518;6.732;2023-04-25T07:32:40;10.90;;;3.97;;
74344;SDS011;62776;50.518;6.732;2023-04-25T07:35:26;9.27;;;4.45;;
74344;SDS011;62776;50.518;6.732;2023-04-25T07:38:12;10.32;;;4.07;;
74344;SDS011;62776;50.518;6.732;2023-04-25T07:40:59;10.30;;;4.18;;
74344;SDS011;62776;50.518;6.732;2023-04-25T07:43:45;13.27;;;4.53;;
74344;SDS011;62776;50.518;6.732;2023-04-25T07:46:32;9.63;;;3.60;;
74344;SDS011;62776;50.518;6.732;2023-04-25T07:49:20;7.28;;;3.42;;
74344;SDS011;62776;50.518;6.732;2023-04-25T07:52:07;9.85;;;4.43;;
74344;SDS011;62776;50.518;6.732;2023-04-25T07:54:53;8.88;;;4.00;;
74344;SDS011;62776;50.518;6.732;2023-04-25T07:57:43;8.27;;;4.88;;
74344;SDS011;62776;50.518;6.732;2023-04-25T08:00:29;8.93;;;4.53;;
74344;SDS011;62776;50.518;6.732;2023-04-25T08:03:25;7.10;;;3.90;;
74344;SDS011;62776;50.518;6.732;2023-04-25T08:06:11;10.13;;;3.80;;
74344;SDS011;62776;50.518;6.732;2023-04-25T08:08:57;8.38;;;4.35;;
74344;SDS011;62776;50.518;6.732;2023-04-25T08:11:46;7.45;;;3.97;;
74344;SDS011;62776;50.518;6.732;2023-04-25T08:14:38;11.13;;;4.82;;
74344;SDS011;62776;50.518;6.732;2023-04-25T08:17:25;8.82;;;3.92;;
74344;SDS011;62776;50.518;6.732;2023-04-25T08:20:15;7.38;;;4.05;;
74344;SDS011;62776;50.518;6.732;2023-04-25T08:23:02;13.55;;;4.35;;
74344;SDS011;62776;50.518;6.732;2023-04-25T08:26:00;9.63;;;3.97;;
74344;SDS011;62776;50.518;6.732;2023-04-25T08:28:58;9.68;;;3.42;;
74344;SDS011;62776;50.518;6.732;2023-04-25T08:31:50;9.98;;;4.15;;
74344;SDS011;62776;50.518;6.732;2023-04-25T08:34:38;5.00;;;2.80;;
74344;SDS011;62776;50.518;6.732;2023-04-25T08:37:27;6.13;;;3.20;;
74344;SDS011;62776;50.518;6.732;2023-04-25T08:40:15;7.65;;;3.58;;
74344;SDS011;62776;50.518;6.732;2023-04-25T08:43:03;4.72;;;3.00;;
74344;SDS011;62776;50.518;6.732;2023-04-25T08:48:52;7.30;;;3.40;;
74344;SDS011;62776;50.518;6.732;2023-04-25T08:51:46;7.20;;;2.80;;
74344;SDS011;62776;50.518;6.732;2023-04-25T08:54:43;9.38;;;3.95;;
74344;SDS011;62776;50.518;6.732;2023-04-25T08:57:33;5.60;;;2.35;;
74344;SDS011;62776;50.518;6.732;2023-04-25T09:00:21;5.50;;;2.88;;
74344;SDS011;62776;50.518;6.732;2023-04-25T09:03:10;6.45;;;2.83;;
74344;SDS011;62776;50.518;6.732;2023-04-25T09:05:58;4.60;;;2.30;;
74344;SDS011;62776;50.518;6.732;2023-04-25T09:08:45;5.20;;;2.55;;
74344;SDS011;62776;50.518;6.732;2023-04-25T09:11:32;4.85;;;2.50;;
74344;SDS011;62776;50.518;6.732;2023-04-25T09:14:23;5.32;;;2.50;;
74344;SDS011;62776;50.518;6.732;2023-04-25T09:17:13;4.45;;;2.20;;
74344;SDS011;62776;50.518;6.732;2023-04-25T09:20:09;4.70;;;2.22;;
74344;SDS011;62776;50.518;6.732;2023-04-25T09:23:04;4.40;;;2.42;;
74344;SDS011;62776;50.518;6.732;2023-04-25T09:25:53;5.63;;;1.67;;
74344;SDS011;62776;50.518;6.732;2023-04-25T09:28:39;3.88;;;1.83;;
74344;SDS011;62776;50.518;6.732;2023-04-25T09:31:29;2.92;;;1.80;;
74344;SDS011;62776;50.518;6.732;2023-04-25T09:34:18;3.30;;;1.80;;
74344;SDS011;62776;50.518;6.732;2023-04-25T09:37:04;4.32;;;2.05;;
74344;SDS011;62776;50.518;6.732;2023-04-25T09:39:53;3.25;;;1.98;;
74344;SDS011;62776;50.518;6.732;2023-04-25T09:42:50;5.43;;;1.98;;
74344;SDS011;62776;50.518;6.732;2023-04-25T09:45:42;4.47;;;1.98;;
74344;SDS011;62776;50.518;6.732;2023-04-25T09:48:31;4.93;;;2.00;;
74344;SDS011;62776;50.518;6.732;2023-04-25T09:51:18;5.72;;;1.83;;
74344;SDS011;62776;50.518;6.732;2023-04-25T09:54:05;5.18;;;2.17;;
74344;SDS011;62776;50.518;6.732;2023-04-25T09:57:00;5.63;;;2.38;;
74344;SDS011;62776;50.518;6.732;2023-04-25T10:00:23;5.85;;;2.20;;
74344;SDS011;62776;50.518;6.732;2023-04-25T10:03:25;2.97;;;1.90;;
74344;SDS011;62776;50.518;6.732;2023-04-25T10:06:17;5.38;;;1.95;;
74344;SDS011;62776;50.518;6.732;2023-04-25T10:09:07;3.47;;;2.13;;
74344;SDS011;62776;50.518;6.732;2023-04-25T10:11:53;2.72;;;1.90;;
74344;SDS011;62776;50.518;6.732;2023-04-25T10:14:41;5.25;;;2.45;;
74344;SDS011;62776;50.518;6.732;2023-04-25T10:17:42;5.72;;;3.22;;
74344;SDS011;62776;50.518;6.732;2023-04-25T10:20:30;5.35;;;1.85;;
74344;SDS011;62776;50.518;6.732;2023-04-25T10:23:22;5.25;;;2.47;;
74344;SDS011;62776;50.518;6.732;2023-04-25T10:26:09;5.93;;;3.05;;
74344;SDS011;62776;50.518;6.732;2023-04-25T10:29:00;6.50;;;3.10;;
74344;SDS011;62776;50.518;6.732;2023-04-25T10:31:48;5.03;;;2.60;;
74344;SDS011;62776;50.518;6.732;2023-04-25T10:34:42;5.60;;;2.78;;
74344;SDS011;62776;50.518;6.732;2023-04-25T10:37:32;3.20;;;1.90;;
74344;SDS011;62776;50.518;6.732;2023-04-25T10:40:21;5.22;;;2.42;;
74344;SDS011;62776;50.518;6.732;2023-04-25T10:46:24;5.30;;;2.28;;
74344;SDS011;62776;50.518;6.732;2023-04-25T10:52:26;2.75;;;1.63;;
74344;SDS011;62776;50.518;6.732;2023-04-25T10:55:14;4.68;;;2.10;;
74344;SDS011;62776;50.518;6.732;2023-04-25T10:58:01;5.43;;;2.22;;
74344;SDS011;62776;50.518;6.732;2023-04-25T11:00:49;3.88;;;1.77;;
74344;SDS011;62776;50.518;6.732;2023-04-25T11:03:42;3.67;;;2.38;;
74344;SDS011;62776;50.518;6.732;2023-04-25T11:06:43;4.55;;;2.30;;
74344;SDS011;62776;50.518;6.732;2023-04-25T11:10:00;4.30;;;2.10;;
74344;SDS011;62776;50.518;6.732;2023-04-25T11:12:50;5.43;;;2.17;;
74344;SDS011;62776;50.518;6.732;2023-04-25T11:15:37;4.22;;;1.95;;
74344;SDS011;62776;50.518;6.732;2023-04-25T11:18:26;5.63;;;2.03;;
74344;SDS011;62776;50.518;6.732;2023-04-25T11:21:13;5.80;;;2.20;;
74344;SDS011;62776;50.518;6.732;2023-04-25T11:24:01;5.72;;;2.47;;
74344;SDS011;62776;50.518;6.732;2023-04-25T11:26:54;7.05;;;2.42;;
74344;SDS011;62776;50.518;6.732;2023-04-25T11:29:44;7.15;;;2.58;;
74344;SDS011;62776;50.518;6.732;2023-04-25T11:32:34;3.03;;;1.77;;
74344;SDS011;62776;50.518;6.732;2023-04-25T11:35:20;5.40;;;2.15;;
74344;SDS011;62776;50.518;6.732;2023-04-25T11:38:10;5.72;;;2.42;;
74344;SDS011;62776;50.518;6.732;2023-04-25T11:40:57;3.67;;;1.70;;
74344;SDS011;62776;50.518;6.732;2023-04-25T11:43:46;5.22;;;2.03;;
74344;SDS011;62776;50.518;6.732;2023-04-25T11:46:43;6.35;;;1.92;;
74344;SDS011;62776;50.518;6.732;2023-04-25T11:49:32;7.88;;;2.50;;
74344;SDS011;62776;50.518;6.732;2023-04-25T11:52:19;3.67;;;2.28;;
74344;SDS011;62776;50.518;6.732;2023-04-25T11:55:08;4.43;;;2.28;;
74344;SDS011;62776;50.518;6.732;2023-04-25T11:58:15;4.95;;;2.75;;
74344;SDS011;62776;50.518;6.732;2023-04-25T12:01:02;5.03;;;2.30;;
74344;SDS011;62776;50.518;6.732;2023-04-25T12:03:52;4.28;;;2.10;;
74344;SDS011;62776;50.518;6.732;2023-04-25T12:06:39;6.18;;;2.83;;
74344;SDS011;62776;50.518;6.732;2023-04-25T12:09:28;3.30;;;1.80;;
74344;SDS011;62776;50.518;6.732;2023-04-25T12:12:18;5.47;;;2.65;;
74344;SDS011;62776;50.518;6.732;2023-04-25T12:15:11;4.10;;;1.95;;
74344;SDS011;62776;50.518;6.732;2023-04-25T12:18:01;5.05;;;2.10;;
74344;SDS011;62776;50.518;6.732;2023-04-25T12:20:48;6.85;;;2.88;;
74344;SDS011;62776;50.518;6.732;2023-04-25T12:23:46;4.13;;;2.80;;
74344;SDS011;62776;50.518;6.732;2023-04-25T12:26:45;5.40;;;2.38;;
74344;SDS011;62776;50.518;6.732;2023-04-25T12:29:33;7.25;;;3.42;;
74344;SDS011;62776;50.518;6.732;2023-04-25T12:32:20;5.00;;;2.63;;
74344;SDS011;62776;50.518;6.732;2023-04-25T12:35:08;4.32;;;2.47;;
74344;SDS011;62776;50.518;6.732;2023-04-25T12:38:01;4.82;;;2.53;;
74344;SDS011;62776;50.518;6.732;2023-04-25T12:40:50;4.50;;;2.13;;
74344;SDS011;62776;50.518;6.732;2023-04-25T12:43:36;5.57;;;2.60;;
74344;SDS011;62776;50.518;6.732;2023-04-25T12:46:22;5.75;;;2.58;;
74344;SDS011;62776;50.518;6.732;2023-04-25T12:49:17;5.43;;;2.20;;
74344;SDS011;62776;50.518;6.732;2023-04-25T12:52:03;4.95;;;2.10;;
74344;SDS011;62776;50.518;6.732;2023-04-25T12:54:50;6.72;;;2.40;;
74344;SDS011;62776;50.518;6.732;2023-04-25T12:57:39;6.05;;;2.28;;
74344;SDS011;62776;50.518;6.732;2023-04-25T13:00:33;6.97;;;2.65;;
74344;SDS011;62776;50.518;6.732;2023-04-25T13:03:19;5.88;;;2.55;;
74344;SDS011;62776;50.518;6.732;2023-04-25T13:06:06;7.90;;;3.17;;
74344;SDS011;62776;50.518;6.732;2023-04-25T13:08:53;4.65;;;2.60;;
74344;SDS011;62776;50.518;6.732;2023-04-25T13:11:39;4.13;;;2.50;;
74344;SDS011;62776;50.518;6.732;2023-04-25T13:14:27;5.97;;;3.35;;
74344;SDS011;62776;50.518;6.732;2023-04-25T13:17:13;3.83;;;2.67;;
74344;SDS011;62776;50.518;6.732;2023-04-25T13:20:00;4.28;;;2.53;;
74344;SDS011;62776;50.518;6.732;2023-04-25T13:22:46;3.83;;;2.60;;
74344;SDS011;62776;50.518;6.732;2023-04-25T13:25:33;15.05;;;2.65;;
74344;SDS011;62776;50.518;6.732;2023-04-25T13:28:20;9.27;;;2.85;;
74344;SDS011;62776;50.518;6.732;2023-04-25T13:31:06;3.85;;;2.60;;
74344;SDS011;62776;50.518;6.732;2023-04-25T13:33:52;6.70;;;2.95;;
74344;SDS011;62776;50.518;6.732;2023-04-25T13:36:40;6.85;;;3.17;;
74344;SDS011;62776;50.518;6.732;2023-04-25T13:39:29;6.53;;;2.42;;
74344;SDS011;62776;50.518;6.732;2023-04-25T13:42:16;4.28;;;2.55;;
74344;SDS011;62776;50.518;6.732;2023-04-25T13:45:04;7.13;;;2.60;;
74344;SDS011;62776;50.518;6.732;2023-04-25T13:47:51;5.65;;;3.05;;
74344;SDS011;62776;50.518;6.732;2023-04-25T13:50:38;3.72;;;2.30;;
74344;SDS011;62776;50.518;6.732;2023-04-25T13:53:24;7.40;;;2.38;;
74344;SDS011;62776;50.518;6.732;2023-04-25T13:56:11;5.28;;;2.67;;
74344;SDS011;62776;50.518;6.732;2023-04-25T13:58:58;4.90;;;2.20;;
74344;SDS011;62776;50.518;6.732;2023-04-25T14:01:46;5.90;;;2.35;;
74344;SDS011;62776;50.518;6.732;2023-04-25T14:04:32;8.98;;;2.90;;
74344;SDS011;62776;50.518;6.732;2023-04-25T14:07:19;5.53;;;2.38;;
74344;SDS011;62776;50.518;6.732;2023-04-25T14:10:07;4.57;;;2.80;;
74344;SDS011;62776;50.518;6.732;2023-04-25T14:12:53;4.15;;;2.60;;
74344;SDS011;62776;50.518;6.732;2023-04-25T14:15:41;4.10;;;2.60;;
74344;SDS011;62776;50.518;6.732;2023-04-25T14:18:27;3.53;;;2.22;;
74344;SDS011;62776;50.518;6.732;2023-04-25T14:21:13;4.03;;;2.35;;
74344;SDS011;62776;50.518;6.732;2023-04-25T14:24:00;5.25;;;2.72;;
74344;SDS011;62776;50.518;6.732;2023-04-25T14:26:46;6.60;;;2.70;;
74344;SDS011;62776;50.518;6.732;2023-04-25T14:29:32;2.97;;;2.38;;
74344;SDS011;62776;50.518;6.732;2023-04-25T14:32:26;4.50;;;2.00;;
74344;SDS011;62776;50.518;6.732;2023-04-25T14:35:14;3.25;;;1.77;;
74344;SDS011;62776;50.518;6.732;2023-04-25T14:38:01;4.93;;;2.25;;
74344;SDS011;62776;50.518;6.732;2023-04-25T14:40:49;8.73;;;2.55;;
74344;SDS011;62776;50.518;6.732;2023-04-25T14:43:36;4.03;;;2.00;;
74344;SDS011;62776;50.518;6.732;2023-04-25T14:46:25;3.88;;;1.95;;
74344;SDS011;62776;50.518;6.732;2023-04-25T14:49:13;4.03;;;2.53;;
74344;SDS011;62776;50.518;6.732;2023-04-25T14:52:00;6.75;;;2.83;;
74344;SDS011;62776;50.518;6.732;2023-04-25T14:54:48;7.07;;;2.63;;
74344;SDS011;62776;50.518;6.732;2023-04-25T14:57:37;3.88;;;2.33;;
74344;SDS011;62776;50.518;6.732;2023-04-25T15:00:26;3.70;;;2.17;;
74344;SDS011;62776;50.518;6.732;2023-04-25T15:03:12;6.13;;;2.40;;
74344;SDS011;62776;50.518;6.732;2023-04-25T15:05:59;3.38;;;1.95;;
74344;SDS011;62776;50.518;6.732;2023-04-25T15:08:45;3.88;;;1.80;;
74344;SDS011;62776;50.518;6.732;2023-04-25T15:11:32;3.28;;;1.95;;
74344;SDS011;62776;50.518;6.732;2023-04-25T15:14:18;3.70;;;1.90;;
74344;SDS011;62776;50.518;6.732;2023-04-25T15:17:06;5.40;;;2.50;;
74344;SDS011;62776;50.518;6.732;2023-04-25T15:19:53;9.65;;;2.17;;
74344;SDS011;62776;50.518;6.732;2023-04-25T15:22:41;3.42;;;2.10;;
74344;SDS011;62776;50.518;6.732;2023-04-25T15:25:28;3.47;;;1.75;;
74344;SDS011;62776;50.518;6.732;2023-04-25T15:28:15;4.25;;;1.83;;
74344;SDS011;62776;50.518;6.732;2023-04-25T15:31:02;3.00;;;1.77;;
74344;SDS011;62776;50.518;6.732;2023-04-25T15:33:51;2.08;;;1.63;;
74344;SDS011;62776;50.518;6.732;2023-04-25T15:36:37;6.05;;;2.40;;
74344;SDS011;62776;50.518;6.732;2023-04-25T15:39:23;3.40;;;2.30;;
74344;SDS011;62776;50.518;6.732;2023-04-25T15:42:10;2.97;;;1.65;;
74344;SDS011;62776;50.518;6.732;2023-04-25T15:44:58;5.00;;;2.13;;
74344;SDS011;62776;50.518;6.732;2023-04-25T15:47:46;4.07;;;2.72;;
74344;SDS011;62776;50.518;6.732;2023-04-25T15:50:32;3.72;;;2.15;;
74344;SDS011;62776;50.518;6.732;2023-04-25T15:53:23;4.13;;;2.17;;
74344;SDS011;62776;50.518;6.732;2023-04-25T15:56:10;3.28;;;1.70;;
74344;SDS011;62776;50.518;6.732;2023-04-25T15:58:56;4.00;;;2.00;;
74344;SDS011;62776;50.518;6.732;2023-04-25T16:01:44;4.88;;;2.20;;
74344;SDS011;62776;50.518;6.732;2023-04-25T16:04:32;3.20;;;1.63;;
74344;SDS011;62776;50.518;6.732;2023-04-25T16:07:19;4.80;;;1.95;;
74344;SDS011;62776;50.518;6.732;2023-04-25T16:10:06;4.00;;;2.03;;
74344;SDS011;62776;50.518;6.732;2023-04-25T16:12:53;2.25;;;1.90;;
74344;SDS011;62776;50.518;6.732;2023-04-25T16:15:39;2.67;;;1.65;;
74344;SDS011;62776;50.518;6.732;2023-04-25T16:18:26;2.85;;;1.80;;
74344;SDS011;62776;50.518;6.732;2023-04-25T16:21:12;2.67;;;1.80;;
74344;SDS011;62776;50.518;6.732;2023-04-25T16:24:02;4.90;;;2.50;;
74344;SDS011;62776;50.518;6.732;2023-04-25T16:26:49;4.70;;;1.95;;
74344;SDS011;62776;50.518;6.732;2023-04-25T16:29:40;2.65;;;1.77;;
74344;SDS011;62776;50.518;6.732;2023-04-25T16:32:27;3.53;;;1.80;;
74344;SDS011;62776;50.518;6.732;2023-04-25T16:35:14;3.55;;;1.92;;
74344;SDS011;62776;50.518;6.732;2023-04-25T16:38:01;3.15;;;1.50;;
74344;SDS011;62776;50.518;6.732;2023-04-25T16:40:47;4.78;;;2.38;;
74344;SDS011;62776;50.518;6.732;2023-04-25T16:43:33;5.00;;;1.95;;
74344;SDS011;62776;50.518;6.732;2023-04-25T16:46:20;3.72;;;2.05;;
74344;SDS011;62776;50.518;6.732;2023-04-25T16:49:07;1.60;;;1.40;;
74344;SDS011;62776;50.518;6.732;2023-04-25T16:51:53;3.28;;;1.80;;
74344;SDS011;62776;50.518;6.732;2023-04-25T16:54:41;4.22;;;2.03;;
74344;SDS011;62776;50.518;6.732;2023-04-25T16:57:32;4.37;;;2.00;;
74344;SDS011;62776;50.518;6.732;2023-04-25T17:00:19;3.10;;;1.92;;
74344;SDS011;62776;50.518;6.732;2023-04-25T17:03:06;3.70;;;2.35;;
74344;SDS011;62776;50.518;6.732;2023-04-25T17:05:53;2.97;;;1.80;;